Main page
METAR-TAF:

METAR-TAF

Airports :

Almería Airport

Almería, Spain

latitude: 36-51N, longitude: 002-23W, elevation: 15 m

Current weather observation

The report was made 36 minutes ago, at 04:30 UTC
Wind 17 kt from the North/Northwest, varying between West/Northwest and North
Temperature 14°C
Humidity 41%
Pressure 1012 hPa
Visibility 10 km or more
Few clouds at a height of 7000 ft

METAR: LEAM 240430Z 33017KT 300V360 9999 FEW070 14/01 Q1012

Time: 06:06 (05:06 UTC)

Forecast

The report was made 6 hours and 6 minutes ago, at 23:00 UTC
Forecast valid from 24 at 00 UTC to 24 at 24 UTC
Wind 10 kt from the North/Northwest
Visibility 10 km or more
no clouds below 1500 m and no cumulonimbus
Probability 40% :
Temporary
from 24 at 12 UTC to 24 at 18 UTC
Wind 15 kt from the North/Northwest with gusts up to 35 kt

TAF: LEAM 232300Z 2400/2424 34010KT CAVOK TX20/2414Z TN11/2406Z PROB40 TEMPO 2412/2418 34015G35KT

Weather observations and forecasts of more than 4000 airports (METAR and TAF reports).

The available stations are represented by yellow and red dots on the map.

Hover mouse over dot to see the name of the station.

Then click to see weather observations and forecasts.

To change the map : click on the green buttons with a black cross to zoom in, on the green button with a dash to zoom out, or on the green arrows for adjacent maps.


METAR-TAF: